createdAt,value
2023-10-06T00:00:56.340Z,15.20
2023-10-06T00:03:24.642Z,16.90
2023-10-06T00:05:54.781Z,15.20
2023-10-06T00:08:23.110Z,15.40
2023-10-06T00:10:53.232Z,14.20
2023-10-06T00:13:25.299Z,16.30
2023-10-06T00:15:53.327Z,15.00
2023-10-06T00:18:21.590Z,15.30
2023-10-06T00:20:57.216Z,14.20
2023-10-06T00:23:28.888Z,14.50
2023-10-06T00:25:56.981Z,15.20
2023-10-06T00:28:30.997Z,14.50
2023-10-06T00:30:59.458Z,15.50
2023-10-06T00:33:34.100Z,15.60
2023-10-06T00:36:30.231Z,13.80
2023-10-06T00:38:58.028Z,13.10
2023-10-06T00:41:28.918Z,14.60
2023-10-06T00:43:58.290Z,14.70
2023-10-06T00:46:26.370Z,13.30
2023-10-06T00:48:55.238Z,13.40
2023-10-06T00:51:24.491Z,13.40
2023-10-06T00:53:53.086Z,15.80
2023-10-06T00:56:25.003Z,12.40
2023-10-06T00:58:53.712Z,16.10
2023-10-06T01:01:23.477Z,13.20
2023-10-06T01:04:12.598Z,15.10
2023-10-06T01:06:43.101Z,16.40
2023-10-06T01:09:13.149Z,15.20
2023-10-06T01:11:48.551Z,13.20
2023-10-06T01:14:26.566Z,14.50
2023-10-06T01:17:06.477Z,15.60
2023-10-06T01:19:34.920Z,17.10
2023-10-06T01:22:21.758Z,17.70
2023-10-06T01:24:50.801Z,16.10
2023-10-06T01:27:18.595Z,14.10
2023-10-06T01:29:46.933Z,16.70
2023-10-06T01:32:17.267Z,14.10
2023-10-06T01:34:46.372Z,14.70
2023-10-06T01:37:17.237Z,14.50
2023-10-06T01:39:47.474Z,15.50
2023-10-06T01:42:18.594Z,14.70
2023-10-06T01:44:46.926Z,14.10
2023-10-06T01:47:15.351Z,13.00
2023-10-06T01:49:45.235Z,14.50
2023-10-06T01:52:15.314Z,14.90
2023-10-06T01:54:46.360Z,13.90
2023-10-06T01:57:16.955Z,13.30
2023-10-06T01:59:45.541Z,15.30
2023-10-06T02:02:15.110Z,12.80
2023-10-06T02:04:50.555Z,14.70
2023-10-06T02:07:19.915Z,16.10
2023-10-06T02:09:47.715Z,18.70
2023-10-06T02:12:17.288Z,16.10
2023-10-06T02:14:45.800Z,15.50
2023-10-06T02:17:14.171Z,15.30
2023-10-06T02:19:43.279Z,14.70
2023-10-06T02:22:12.682Z,15.50
2023-10-06T02:24:40.842Z,12.50
2023-10-06T02:27:11.158Z,15.90
2023-10-06T02:29:39.085Z,12.60
2023-10-06T02:32:09.908Z,12.70
2023-10-06T02:34:40.481Z,12.80
2023-10-06T02:37:09.836Z,13.00
2023-10-06T02:39:44.723Z,12.40
2023-10-06T02:42:15.605Z,12.90
2023-10-06T02:44:43.916Z,12.10
2023-10-06T02:47:13.003Z,11.10
2023-10-06T02:49:50.890Z,10.70
2023-10-06T02:52:22.597Z,10.70
2023-10-06T02:55:06.252Z,12.00
2023-10-06T02:57:37.455Z,10.40
2023-10-06T03:00:25.036Z,10.60
2023-10-06T03:02:57.602Z,11.00
2023-10-06T03:05:40.481Z,14.50
2023-10-06T03:08:11.453Z,12.60
2023-10-06T03:10:44.590Z,12.10
2023-10-06T03:13:16.325Z,12.70
2023-10-06T03:15:47.637Z,12.80
2023-10-06T03:18:17.418Z,13.00
2023-10-06T03:20:51.409Z,15.10
2023-10-06T03:23:28.109Z,13.20
2023-10-06T03:25:57.790Z,15.20
2023-10-06T03:28:38.586Z,14.90
2023-10-06T03:31:22.295Z,15.80
2023-10-06T03:33:56.218Z,13.60
2023-10-06T03:36:38.888Z,15.30
2023-10-06T03:39:09.479Z,14.00
2023-10-06T03:41:38.933Z,17.00
2023-10-06T03:44:06.861Z,14.10
2023-10-06T03:46:39.748Z,16.80
2023-10-06T03:49:09.583Z,14.50
2023-10-06T03:51:40.353Z,14.40
2023-10-06T03:54:11.541Z,16.10
2023-10-06T03:56:39.551Z,16.00
2023-10-06T03:59:14.654Z,15.20
2023-10-06T04:01:46.708Z,14.70
2023-10-06T04:04:23.744Z,15.00
2023-10-06T04:06:52.105Z,14.70
2023-10-06T04:09:29.792Z,13.90
2023-10-06T04:11:58.740Z,14.20
2023-10-06T04:14:29.387Z,16.90
2023-10-06T04:16:59.598Z,15.10
2023-10-06T04:19:28.063Z,13.80
2023-10-06T04:21:56.316Z,17.20
2023-10-06T04:24:24.446Z,15.70
2023-10-06T04:26:53.424Z,16.30
2023-10-06T04:29:21.231Z,14.90
2023-10-06T04:31:49.260Z,15.60
2023-10-06T04:34:17.428Z,14.70
2023-10-06T04:36:45.271Z,17.20
2023-10-06T04:39:17.954Z,15.20
2023-10-06T04:41:45.824Z,15.40
2023-10-06T04:44:14.006Z,15.40
2023-10-06T04:46:42.649Z,17.70
2023-10-06T04:49:11.200Z,15.80
2023-10-06T04:51:39.527Z,15.40
2023-10-06T04:54:09.848Z,16.20
2023-10-06T04:56:37.907Z,15.50
2023-10-06T04:59:08.010Z,14.70
2023-10-06T05:01:36.474Z,13.70
2023-10-06T05:04:07.773Z,14.90
2023-10-06T05:06:35.666Z,13.60
2023-10-06T05:09:04.279Z,16.40
2023-10-06T05:11:34.192Z,16.30
2023-10-06T05:14:02.768Z,14.90
2023-10-06T05:16:30.907Z,16.10
2023-10-06T05:18:58.855Z,16.30
2023-10-06T05:21:27.288Z,16.00
2023-10-06T05:23:57.404Z,89.90
2023-10-06T05:26:25.582Z,333.30
2023-10-06T05:28:54.180Z,158.10
2023-10-06T05:31:23.874Z,56.20
2023-10-06T05:33:52.869Z,276.10
2023-10-06T05:36:21.574Z,134.80
2023-10-06T05:38:50.996Z,152.80
2023-10-06T05:41:19.356Z,37.00
2023-10-06T05:43:47.379Z,27.00
2023-10-06T05:46:15.558Z,17.10
2023-10-06T05:48:44.875Z,15.00
2023-10-06T05:51:16.530Z,11.90
2023-10-06T05:53:45.934Z,12.20
2023-10-06T05:56:14.188Z,11.70
2023-10-06T05:58:44.688Z,11.80
2023-10-06T06:01:15.058Z,11.40
2023-10-06T06:03:51.481Z,10.70
2023-10-06T06:06:24.458Z,11.00
2023-10-06T06:08:53.415Z,10.40
2023-10-06T06:11:22.175Z,10.50
2023-10-06T06:14:02.620Z,11.10
2023-10-06T06:16:38.040Z,11.00
2023-10-06T06:19:07.426Z,9.70
2023-10-06T06:21:36.235Z,9.50
2023-10-06T06:24:07.532Z,8.20
2023-10-06T06:26:39.026Z,8.80
2023-10-06T06:29:09.751Z,9.10
2023-10-06T06:31:38.764Z,7.80
2023-10-06T06:34:06.784Z,7.60
2023-10-06T06:36:34.868Z,8.60
2023-10-06T06:39:04.914Z,7.70
2023-10-06T06:41:34.581Z,7.90
2023-10-06T06:44:02.658Z,7.80
2023-10-06T06:46:33.487Z,7.40
2023-10-06T06:49:01.627Z,7.80
2023-10-06T06:51:29.950Z,7.80
2023-10-06T06:53:58.615Z,7.60
2023-10-06T06:56:30.399Z,6.80
2023-10-06T06:59:02.372Z,7.40
2023-10-06T07:01:30.708Z,7.90
2023-10-06T07:04:02.921Z,7.30
2023-10-06T07:06:32.894Z,7.80
2023-10-06T07:09:01.433Z,7.80
2023-10-06T07:11:29.671Z,8.70
2023-10-06T07:13:57.663Z,7.20
2023-10-06T07:16:26.298Z,6.70
2023-10-06T07:18:54.963Z,7.20
2023-10-06T07:21:24.212Z,6.30
2023-10-06T07:23:53.589Z,6.10
2023-10-06T07:26:23.930Z,6.60
2023-10-06T07:28:53.693Z,6.70
2023-10-06T07:31:21.615Z,5.90
2023-10-06T07:33:49.715Z,5.70
2023-10-06T07:36:19.497Z,6.00
2023-10-06T07:38:47.863Z,6.80
2023-10-06T07:41:22.137Z,5.70
2023-10-06T07:43:50.995Z,5.00
2023-10-06T07:46:19.489Z,6.10
2023-10-06T07:48:47.784Z,7.00
2023-10-06T07:51:15.697Z,6.20
2023-10-06T07:53:44.687Z,7.10
2023-10-06T07:56:14.812Z,7.30
2023-10-06T07:58:42.836Z,7.00
2023-10-06T08:01:12.446Z,7.00
2023-10-06T08:03:40.693Z,6.10
2023-10-06T08:06:09.582Z,7.50
2023-10-06T08:08:38.752Z,7.00
2023-10-06T08:11:07.717Z,7.10
2023-10-06T08:13:40.185Z,6.30
2023-10-06T08:18:36.738Z,6.80
2023-10-06T08:21:05.301Z,6.40
2023-10-06T08:23:33.893Z,6.30
2023-10-06T08:26:08.750Z,6.80
2023-10-06T08:28:36.597Z,7.00
2023-10-06T08:31:04.963Z,6.30
2023-10-06T08:33:33.984Z,6.70
2023-10-06T08:36:03.344Z,4.80
2023-10-06T08:38:33.606Z,4.80
2023-10-06T08:41:05.078Z,5.00
2023-10-06T08:43:34.048Z,5.30
2023-10-06T08:46:02.115Z,6.40
2023-10-06T08:48:33.983Z,4.60
2023-10-06T08:51:05.673Z,5.60
2023-10-06T08:53:33.778Z,5.20
2023-10-06T08:56:02.028Z,4.80
2023-10-06T08:58:30.773Z,4.60
2023-10-06T09:00:59.547Z,4.00
2023-10-06T09:03:29.078Z,4.80
2023-10-06T09:05:57.503Z,4.20
2023-10-06T09:08:25.614Z,4.30
2023-10-06T09:10:55.623Z,3.80
2023-10-06T09:13:23.547Z,3.90
2023-10-06T09:15:57.324Z,5.10
2023-10-06T09:18:28.892Z,4.60
2023-10-06T09:21:00.396Z,4.50
2023-10-06T09:23:30.418Z,4.70
2023-10-06T09:25:59.068Z,4.80
2023-10-06T09:28:28.237Z,5.20
2023-10-06T09:31:03.209Z,4.00
2023-10-06T09:33:37.479Z,5.00
2023-10-06T09:36:09.896Z,4.60
2023-10-06T09:38:39.134Z,4.60
2023-10-06T09:41:09.150Z,4.80
2023-10-06T09:43:41.381Z,4.90
2023-10-06T09:46:12.712Z,4.70
2023-10-06T09:48:42.121Z,4.80
2023-10-06T09:51:11.541Z,4.20
2023-10-06T09:53:40.586Z,4.90
2023-10-06T09:56:11.483Z,4.80
2023-10-06T09:58:50.097Z,3.80
2023-10-06T10:01:18.520Z,3.60
2023-10-06T10:03:46.908Z,3.60
2023-10-06T10:06:17.400Z,3.20
2023-10-06T10:08:45.675Z,3.50
2023-10-06T10:11:30.640Z,4.00
2023-10-06T10:14:04.692Z,3.40
2023-10-06T10:17:04.023Z,3.90
2023-10-06T10:19:32.531Z,3.30
2023-10-06T10:22:00.481Z,3.10
2023-10-06T10:25:09.825Z,2.90
2023-10-06T10:27:19.689Z,3.00
2023-10-06T10:29:48.690Z,5.10
2023-10-06T10:32:24.650Z,4.20
2023-10-06T10:35:15.707Z,3.70
2023-10-06T10:37:57.338Z,3.70
2023-10-06T10:40:33.500Z,3.30
2023-10-06T10:43:06.932Z,3.70
2023-10-06T10:45:36.477Z,7.00
2023-10-06T10:48:14.819Z,5.70
2023-10-06T10:50:57.725Z,5.70
2023-10-06T10:53:29.684Z,11.30
2023-10-06T10:55:58.003Z,8.90
2023-10-06T10:58:49.668Z,15.70
2023-10-06T11:01:33.776Z,6.10
2023-10-06T11:04:11.598Z,7.20
2023-10-06T11:06:40.839Z,47.80
2023-10-06T11:09:38.575Z,10.50
2023-10-06T11:12:30.996Z,29.00
2023-10-06T11:15:17.538Z,8.30
2023-10-06T11:17:45.750Z,16.30
2023-10-06T11:20:34.998Z,19.30
2023-10-06T11:23:04.732Z,10.30
2023-10-06T11:25:40.307Z,14.10
2023-10-06T11:28:11.196Z,5.30
2023-10-06T11:30:40.370Z,14.50
2023-10-06T11:33:10.320Z,6.50
2023-10-06T11:35:39.539Z,6.90
2023-10-06T11:38:09.393Z,3.80
2023-10-06T11:40:37.218Z,3.20
2023-10-06T11:43:13.779Z,3.20
2023-10-06T11:45:43.169Z,3.80
2023-10-06T11:48:31.183Z,3.20
2023-10-06T11:51:01.968Z,3.70
2023-10-06T11:53:29.899Z,5.10
2023-10-06T11:56:15.228Z,6.50
2023-10-06T11:58:43.868Z,3.10
2023-10-06T12:01:35.494Z,8.20
2023-10-06T12:04:06.979Z,3.80
2023-10-06T12:06:40.223Z,6.40
2023-10-06T12:09:09.884Z,3.70
2023-10-06T12:11:40.558Z,3.00
2023-10-06T12:14:08.550Z,3.00
2023-10-06T12:16:37.868Z,3.00
2023-10-06T12:19:07.220Z,2.60
2023-10-06T12:21:36.646Z,4.60
2023-10-06T12:24:05.506Z,3.80
2023-10-06T12:26:34.761Z,3.70
2023-10-06T12:29:03.555Z,3.40
2023-10-06T12:31:31.700Z,3.50
2023-10-06T12:34:05.283Z,2.90
2023-10-06T12:36:33.639Z,3.20
2023-10-06T12:39:01.832Z,4.10
2023-10-06T12:41:29.966Z,6.50
2023-10-06T12:44:04.603Z,28.50
2023-10-06T12:46:35.010Z,12.40
2023-10-06T12:49:08.531Z,9.20
2023-10-06T12:51:37.439Z,7.70
2023-10-06T12:54:08.777Z,5.10
2023-10-06T12:56:37.266Z,10.50
2023-10-06T12:59:05.519Z,5.00
2023-10-06T13:01:34.503Z,6.50
2023-10-06T13:04:02.426Z,6.60
2023-10-06T13:06:31.768Z,5.00
2023-10-06T13:09:03.999Z,2.90
2023-10-06T13:11:31.945Z,2.40
2023-10-06T13:14:04.722Z,7.00
2023-10-06T13:16:33.103Z,4.10
2023-10-06T13:19:00.901Z,4.00
2023-10-06T13:21:28.801Z,3.40
2023-10-06T13:24:02.406Z,4.50
2023-10-06T13:26:42.653Z,4.00
2023-10-06T13:29:12.350Z,4.20
2023-10-06T13:31:40.687Z,4.70
2023-10-06T13:34:09.366Z,8.40
2023-10-06T13:36:37.617Z,7.10
2023-10-06T13:39:10.962Z,4.10
2023-10-06T13:41:43.174Z,2.80
2023-10-06T13:44:12.134Z,2.50
2023-10-06T13:46:41.966Z,8.40
2023-10-06T13:49:10.062Z,11.80
2023-10-06T13:51:38.117Z,10.20
2023-10-06T13:54:07.108Z,12.70
2023-10-06T13:56:40.755Z,16.50
2023-10-06T13:59:10.993Z,6.70
2023-10-06T14:01:41.261Z,6.70
2023-10-06T14:04:09.647Z,5.60
2023-10-06T14:06:38.422Z,10.40
2023-10-06T14:09:07.179Z,45.10
2023-10-06T14:11:35.175Z,34.80
2023-10-06T14:14:14.950Z,16.80
2023-10-06T14:16:44.066Z,38.00
2023-10-06T14:19:13.453Z,22.60
2023-10-06T14:21:41.516Z,41.10
2023-10-06T14:24:12.075Z,14.40
2023-10-06T14:26:42.091Z,20.30
2023-10-06T14:29:10.351Z,18.60
2023-10-06T14:31:49.486Z,19.70
2023-10-06T14:34:47.934Z,23.40
2023-10-06T14:37:29.076Z,32.50
2023-10-06T14:40:15.873Z,39.70
2023-10-06T14:43:02.529Z,52.60
2023-10-06T14:45:49.231Z,33.00
2023-10-06T14:48:17.420Z,26.70
2023-10-06T14:50:45.469Z,25.30
2023-10-06T14:53:13.603Z,16.00
2023-10-06T14:55:41.577Z,11.60
2023-10-06T14:58:10.217Z,9.80
2023-10-06T15:00:39.305Z,10.00
2023-10-06T15:03:10.237Z,15.40
2023-10-06T15:05:38.329Z,10.80
2023-10-06T15:08:12.040Z,7.70
2023-10-06T15:10:43.508Z,6.20
2023-10-06T15:13:14.378Z,6.30
2023-10-06T15:15:43.934Z,4.70
2023-10-06T15:18:21.611Z,7.70
2023-10-06T15:20:50.921Z,16.00
2023-10-06T15:23:19.621Z,27.90
2023-10-06T15:26:08.773Z,19.70
2023-10-06T15:28:39.444Z,19.10
2023-10-06T15:31:07.865Z,77.90
2023-10-06T15:33:35.659Z,55.90
2023-10-06T15:36:04.348Z,55.00
2023-10-06T15:38:32.975Z,65.60
2023-10-06T15:41:04.106Z,49.80
2023-10-06T15:43:32.479Z,132.10
2023-10-06T15:46:05.043Z,92.60
2023-10-06T15:48:34.928Z,102.60
2023-10-06T15:51:04.359Z,39.80
2023-10-06T15:53:34.042Z,56.50
2023-10-06T15:56:04.446Z,63.60
2023-10-06T15:58:34.192Z,59.50
2023-10-06T16:01:13.203Z,37.50
2023-10-06T16:03:43.332Z,42.60
2023-10-06T16:06:11.361Z,30.20
2023-10-06T16:08:40.465Z,22.20
2023-10-06T16:11:09.339Z,46.60
2023-10-06T16:13:39.968Z,60.40
2023-10-06T16:16:12.944Z,38.00
2023-10-06T16:18:45.805Z,22.80
2023-10-06T16:21:17.308Z,13.70
2023-10-06T16:23:47.847Z,27.00
2023-10-06T16:26:16.205Z,21.20
2023-10-06T16:28:44.806Z,20.70
2023-10-06T16:31:13.887Z,25.80
2023-10-06T16:33:42.810Z,123.90
2023-10-06T16:36:12.609Z,108.60
2023-10-06T16:38:42.353Z,74.40
2023-10-06T16:41:12.930Z,36.70
2023-10-06T16:43:42.144Z,23.90
2023-10-06T16:46:12.181Z,23.30
2023-10-06T16:48:40.806Z,17.40
2023-10-06T16:51:12.265Z,13.90
2023-10-06T16:53:40.571Z,15.10
2023-10-06T16:56:09.789Z,12.10
2023-10-06T16:58:37.818Z,11.80
2023-10-06T17:01:06.875Z,22.30
2023-10-06T17:03:35.014Z,94.50
2023-10-06T17:06:05.355Z,48.90
2023-10-06T17:08:33.579Z,25.50
2023-10-06T17:11:34.248Z,17.30
2023-10-06T17:14:02.149Z,24.20
2023-10-06T17:16:30.653Z,13.60
2023-10-06T17:18:58.821Z,11.00
2023-10-06T17:21:27.924Z,15.90
2023-10-06T17:23:55.755Z,13.20
2023-10-06T17:26:23.861Z,8.80
2023-10-06T17:28:51.793Z,6.90
2023-10-06T17:31:20.007Z,12.60
2023-10-06T17:33:50.854Z,4.30
2023-10-06T17:36:20.291Z,3.30
2023-10-06T17:38:48.702Z,3.70
2023-10-06T17:41:18.012Z,8.90
2023-10-06T17:43:50.288Z,5.90
2023-10-06T17:48:47.098Z,12.80
2023-10-06T17:51:16.618Z,4.90
2023-10-06T17:53:45.045Z,2.70
2023-10-06T17:56:13.660Z,2.00
2023-10-06T17:58:41.739Z,4.90
2023-10-06T18:01:10.438Z,4.60
2023-10-06T18:03:38.519Z,2.80
2023-10-06T18:06:06.983Z,1.90
2023-10-06T18:08:35.013Z,1.80
2023-10-06T18:11:02.928Z,3.90
2023-10-06T18:13:30.927Z,2.00
2023-10-06T18:15:59.062Z,1.60
2023-10-06T18:18:27.239Z,2.10
2023-10-06T18:20:55.329Z,2.10
2023-10-06T18:23:23.571Z,3.70
2023-10-06T18:25:51.637Z,1.40
2023-10-06T18:28:21.703Z,1.80
2023-10-06T18:30:50.311Z,2.80
2023-10-06T18:33:18.824Z,1.70
2023-10-06T18:35:46.938Z,1.30
2023-10-06T18:38:14.973Z,1.60
2023-10-06T18:40:57.334Z,1.70
2023-10-06T18:45:57.020Z,1.60
2023-10-06T18:48:25.384Z,2.70
2023-10-06T18:50:57.743Z,1.80
2023-10-06T18:53:26.122Z,2.20
2023-10-06T18:55:54.041Z,1.70
2023-10-06T18:58:21.942Z,3.20
2023-10-06T19:00:51.045Z,2.20
2023-10-06T19:03:20.048Z,1.80
2023-10-06T19:05:49.060Z,1.80
2023-10-06T19:08:17.035Z,1.60
2023-10-06T19:10:47.103Z,1.50
2023-10-06T19:13:15.466Z,1.90
2023-10-06T19:15:43.784Z,1.20
2023-10-06T19:18:12.023Z,2.10
2023-10-06T19:20:40.155Z,1.90
2023-10-06T19:23:11.026Z,1.90
2023-10-06T19:25:45.271Z,2.00
2023-10-06T19:28:13.422Z,2.70
2023-10-06T19:30:42.086Z,1.80
2023-10-06T19:33:09.941Z,3.80
2023-10-06T19:35:39.742Z,2.10
2023-10-06T19:38:09.222Z,2.60
2023-10-06T19:40:37.622Z,2.20
2023-10-06T19:43:07.220Z,2.30
2023-10-06T19:45:35.146Z,2.60
2023-10-06T19:48:03.584Z,2.20
2023-10-06T19:50:31.412Z,2.00
2023-10-06T19:52:59.623Z,1.80
2023-10-06T19:55:28.148Z,1.80
2023-10-06T19:57:56.774Z,1.90
2023-10-06T20:00:27.479Z,1.20
2023-10-06T20:02:57.063Z,2.40
2023-10-06T20:05:26.915Z,2.20
2023-10-06T20:07:54.903Z,2.40
2023-10-06T20:10:23.269Z,1.80
2023-10-06T20:12:52.678Z,1.80
2023-10-06T20:15:20.800Z,2.00
2023-10-06T20:17:48.917Z,2.60
2023-10-06T20:20:22.794Z,2.20
2023-10-06T20:22:52.947Z,1.70
2023-10-06T20:25:23.754Z,2.00
2023-10-06T20:27:53.014Z,2.10
2023-10-06T20:30:23.512Z,2.20
2023-10-06T20:32:57.861Z,2.10
2023-10-06T20:35:29.085Z,1.60
2023-10-06T20:37:56.987Z,2.30
2023-10-06T20:40:29.279Z,2.50
2023-10-06T20:42:59.284Z,2.50
2023-10-06T20:45:28.889Z,1.90
2023-10-06T20:47:57.410Z,2.20
2023-10-06T20:50:25.770Z,1.70
2023-10-06T20:52:54.620Z,2.50
2023-10-06T20:55:23.084Z,2.10
2023-10-06T20:57:51.450Z,2.20
2023-10-06T21:00:19.835Z,2.50
2023-10-06T21:02:48.214Z,2.30
2023-10-06T21:05:20.960Z,2.60
2023-10-06T21:07:49.882Z,2.50
2023-10-06T21:10:18.933Z,2.70
2023-10-06T21:12:47.245Z,1.50
2023-10-06T21:15:15.861Z,2.20
2023-10-06T21:17:44.468Z,2.00
2023-10-06T21:20:17.247Z,2.10
2023-10-06T21:22:45.437Z,1.50
2023-10-06T21:25:18.732Z,2.00
2023-10-06T21:27:47.227Z,2.00
2023-10-06T21:30:17.494Z,2.50
2023-10-06T21:32:46.516Z,2.40
2023-10-06T21:35:16.038Z,2.10
2023-10-06T21:37:46.208Z,2.10
2023-10-06T21:40:14.515Z,2.40
2023-10-06T21:42:42.750Z,2.20
2023-10-06T21:45:11.349Z,2.20
2023-10-06T21:47:39.625Z,1.60
2023-10-06T21:50:08.152Z,1.40
2023-10-06T21:52:36.991Z,2.00
2023-10-06T21:55:06.519Z,2.60
2023-10-06T21:57:36.269Z,2.30
2023-10-06T22:00:24.914Z,2.40
2023-10-06T22:02:56.072Z,1.90
2023-10-06T22:05:24.082Z,2.50
2023-10-06T22:07:52.247Z,2.50
2023-10-06T22:10:20.655Z,2.20
2023-10-06T22:12:52.529Z,2.30
2023-10-06T22:15:21.205Z,2.20
2023-10-06T22:17:49.086Z,2.60
2023-10-06T22:20:17.697Z,3.10
2023-10-06T22:22:45.678Z,1.70
2023-10-06T22:25:14.687Z,1.60
2023-10-06T22:27:44.060Z,2.00
2023-10-06T22:30:12.754Z,2.20
2023-10-06T22:32:43.616Z,2.20
2023-10-06T22:35:11.741Z,1.80
2023-10-06T22:37:40.050Z,2.60
2023-10-06T22:40:08.748Z,2.80
2023-10-06T22:42:37.002Z,2.00
2023-10-06T22:45:05.893Z,2.40
2023-10-06T22:47:34.272Z,1.90
2023-10-06T22:50:02.644Z,1.90
2023-10-06T22:52:30.606Z,1.70
2023-10-06T22:54:59.161Z,2.10
2023-10-06T22:57:26.919Z,2.10
2023-10-06T22:59:54.752Z,1.60
2023-10-06T23:02:23.388Z,2.00
2023-10-06T23:04:51.290Z,1.80
2023-10-06T23:07:19.184Z,2.60
2023-10-06T23:09:47.043Z,2.40
2023-10-06T23:12:15.488Z,1.80
2023-10-06T23:14:43.745Z,1.90
2023-10-06T23:17:12.878Z,2.30
2023-10-06T23:19:40.826Z,1.80
2023-10-06T23:22:08.653Z,2.30
2023-10-06T23:24:51.842Z,2.70
2023-10-06T23:27:23.595Z,2.30
2023-10-06T23:29:51.522Z,2.50
2023-10-06T23:32:19.567Z,2.20
2023-10-06T23:34:47.398Z,2.10
2023-10-06T23:37:17.782Z,2.00
2023-10-06T23:39:47.828Z,3.20
2023-10-06T23:42:16.210Z,2.30
2023-10-06T23:44:44.133Z,2.20
2023-10-06T23:47:15.944Z,2.20
2023-10-06T23:49:47.601Z,2.00
2023-10-06T23:52:15.613Z,2.00
2023-10-06T23:54:43.999Z,1.90
2023-10-06T23:57:16.264Z,1.80
2023-10-06T23:59:53.106Z,2.50
